Погода Каранайаулна 2 недели

Республика Дагестан, Россия

12 - 25 июля
  • 12июля
    Сегодня
    +24°
    +34°
    Небольшая облачность
    ВремяПогодаТемператураВлажностьДавлениеВетер, м/сВероятность осадков
    00:00Практически безоблачно+24°C81 %758 мм1.7 м/с2 %
    03:00Ясно и безоблачно+23°C85 %758 мм2.1 м/с2 %
    06:00Ясно и безоблачно+26°C78 %758 мм1.7 м/с2 %
    09:00Практически безоблачно+32°C58 %757 мм1.6 м/с2 %
    12:00Ясно и безоблачно+33°C54 %757 мм3.3 м/с2 %
    15:00Небольшая облачность+33°C45 %757 мм1.8 м/с7 %
    18:00Облачно с прояснениями+32°C41 %756 мм1.2 м/с5 %
    21:00Облачно с прояснениями+27°C54 %756 мм1.6 м/с1 %
  • 13июля
    Суббота
    +19°
    +31°
    Ясно и безоблачно
    ВремяПогодаТемператураВлажностьДавлениеВетер, м/сВероятность осадков
    00:00Ясно и безоблачно+24°C74 %755 мм0.3 м/с2 %
    03:00Ясно и безоблачно+25°C77 %756 мм1.1 м/с2 %
    06:00Ясно и безоблачно+26°C66 %756 мм2.6 м/с4 %
    09:00Небольшая облачность+30°C65 %757 мм4.7 м/с7 %
    12:00Ясно и безоблачно+30°C50 %757 мм5.3 м/с25 %
    15:00Ясно и безоблачно+29°C51 %757 мм4.1 м/с12 %
    18:00Ясно и безоблачно+27°C51 %756 мм2.2 м/с6 %
    21:00Ясно и безоблачно+23°C63 %757 мм2.7 м/с2 %
  • 14июля
    Воскресенье
    +20°
    +30°
    Ясно и безоблачно
    ВремяПогодаТемператураВлажностьДавлениеВетер, м/сВероятность осадков
    00:00Ясно и безоблачно+22°C75 %756 мм2.6 м/с2 %
    03:00Ясно и безоблачно+20°C85 %755 мм2.5 м/с1 %
    06:00Ясно и безоблачно+24°C49 %755 мм3.5 м/с2 %
    09:00Небольшая облачность+30°C41 %756 мм5.8 м/с2 %
    12:00Небольшая облачность+30°C58 %756 мм4.5 м/с2 %
    15:00Ясно и безоблачно+30°C48 %756 мм2.7 м/с2 %
    18:00Ясно и безоблачно+28°C44 %756 мм0.5 м/с2 %
    21:00Ясно и безоблачно+24°C60 %757 мм3.7 м/с2 %
  • 15июля
    Понедельник
    +21°
    +33°
    Ясно и безоблачно
    ВремяПогодаТемператураВлажностьДавлениеВетер, м/сВероятность осадков
    00:00Ясно и безоблачно+22°C75 %756 мм2.9 м/с2 %
    03:00Ясно и безоблачно+21°C78 %756 мм2.1 м/с2 %
    06:00Ясно и безоблачно+24°C71 %756 мм2.3 м/с2 %
    09:00Ясно и безоблачно+32°C43 %757 мм2.5 м/с2 %
    12:00Ясно и безоблачно+33°C39 %757 мм3.2 м/с2 %
    15:00Ясно и безоблачно+32°C39 %756 мм2.8 м/с2 %
    18:00Ясно и безоблачно+30°C51 %757 мм0.8 м/с2 %
    21:00Ясно и безоблачно+25°C60 %757 мм1.4 м/с2 %
  • 16июля
    Вторник
    +21°
    +34°
    Ясно и безоблачно
    ВремяПогодаТемператураВлажностьДавлениеВетер, м/сВероятность осадков
    00:00Ясно и безоблачно+23°C75 %757 мм1.6 м/с2 %
    03:00Ясно и безоблачно+22°C82 %757 мм1.8 м/с2 %
    06:00Ясно и безоблачно+24°C71 %757 мм1.5 м/с2 %
    09:00Ясно и безоблачно+32°C52 %758 мм2.0 м/с2 %
    12:00Ясно и безоблачно+33°C53 %758 мм4.1 м/с2 %
    15:00Ясно и безоблачно+33°C52 %758 мм3.3 м/с2 %
    18:00Практически безоблачно+31°C55 %758 мм1.8 м/с2 %
    21:00Ясно и безоблачно+26°C68 %758 мм2.0 м/с2 %
Мы используем cookies
Соглашаюсь